Accueil
METAR-TAF:

METAR-TAF

Aéroports :

Aéroport international de Tirana

Tirana, Albanie

latitude: 41-20N, longitude: 019-47E, altitude: 89 m

Observation

Le bulletin a été fait il y a 37 minutes, à 14:50 UTC
Vent 4 kt de nord-ouest
Température 14°C
Humidité 44%
Pression 1021 hPa
Visibilité 10 km ou plus
pas de nuages en-dessous de 1500 mètres et pas de cumulonimbus.

METAR: LATI 261450Z 32004KT CAVOK 14/02 Q1021 NOSIG

Heure: 16:27 (15:27 UTC)

Prévision

Le bulletin a été fait il y a 4 heures et 27 minutes, à 11:00 UTC
Prévision valable du 26 à 12 UTC au 27 à 12 UTC
Vent 5 kt de direction variable
Visibilité 10 km ou plus
pas de nuages en-dessous de 1500 mètres et pas de cumulonimbus.

TAF: LATI 261100Z 2612/2712 VRB05KT CAVOK TX18/2612Z TNM01/2704Z

Observations et prévisions météorologiques de plus de 4000 aéroports (messages METAR et TAF).

Les stations disponibles sont représentées par des disques jaunes et rouges sur la carte.

Passer la souris dessus pour voir le nom de la station.

Cliquer dessus pour voir les observations et prévisions météorologiques.

Pour changer de carte: cliquez sur les boutons verts avec une croix noire pour zoomer, sur le bouton vert avec un tiret pour effectuer un zoom arrière, ou sur les flèches vertes pour les cartes adjacentes.


METAR-TAF: